createdAt,value
2018-08-11T00:00:05.365Z,1.50
2018-08-11T00:02:33.716Z,1.53
2018-08-11T00:05:02.035Z,1.33
2018-08-11T00:07:30.350Z,1.20
2018-08-11T00:09:58.643Z,1.30
2018-08-11T00:12:26.956Z,1.63
2018-08-11T00:14:55.259Z,1.43
2018-08-11T00:17:23.566Z,1.00
2018-08-11T00:19:51.871Z,1.80
2018-08-11T00:22:20.200Z,1.37
2018-08-11T00:24:48.501Z,1.80
2018-08-11T00:27:16.816Z,1.43
2018-08-11T00:29:45.120Z,1.00
2018-08-11T00:32:13.456Z,1.50
2018-08-11T00:34:41.771Z,1.27
2018-08-11T00:37:10.095Z,1.20
2018-08-11T00:39:38.406Z,1.20
2018-08-11T00:42:06.720Z,1.20
2018-08-11T00:44:35.044Z,1.20
2018-08-11T00:47:03.347Z,1.50
2018-08-11T00:49:31.739Z,1.30
2018-08-11T00:52:06.792Z,1.30
2018-08-11T00:54:35.104Z,0.93
2018-08-11T00:57:03.701Z,1.37
2018-08-11T00:59:32.211Z,1.37
2018-08-11T01:02:00.504Z,1.10
2018-08-11T01:04:28.831Z,1.47
2018-08-11T01:06:57.128Z,1.30
2018-08-11T01:09:25.440Z,1.60
2018-08-11T01:11:53.748Z,1.17
2018-08-11T01:14:22.076Z,1.13
2018-08-11T01:16:50.376Z,1.30
2018-08-11T01:19:18.693Z,1.37
2018-08-11T01:21:47.019Z,1.40
2018-08-11T01:24:15.336Z,1.40
2018-08-11T01:26:43.635Z,1.00
2018-08-11T01:29:11.952Z,1.20
2018-08-11T01:31:40.259Z,1.33
2018-08-11T01:34:08.592Z,1.30
2018-08-11T01:36:36.904Z,1.30
2018-08-11T01:39:06.680Z,1.27
2018-08-11T01:41:34.983Z,0.90
2018-08-11T01:44:03.621Z,1.77
2018-08-11T01:46:32.040Z,1.60
2018-08-11T01:49:00.764Z,1.40
2018-08-11T01:51:29.088Z,1.13
2018-08-11T01:53:57.499Z,1.20
2018-08-11T01:56:26.024Z,1.10
2018-08-11T01:58:54.336Z,1.10
2018-08-11T02:01:22.641Z,1.60
2018-08-11T02:03:50.960Z,1.70
2018-08-11T02:06:19.260Z,1.20
2018-08-11T02:08:47.576Z,1.63
2018-08-11T02:11:15.910Z,1.60
2018-08-11T02:13:44.232Z,1.40
2018-08-11T02:16:12.544Z,1.20
2018-08-11T02:18:40.847Z,1.30
2018-08-11T02:21:09.161Z,1.37
2018-08-11T02:23:37.475Z,1.40
2018-08-11T02:26:05.795Z,1.23
2018-08-11T02:28:34.115Z,1.23
2018-08-11T02:31:02.412Z,1.30
2018-08-11T02:33:30.720Z,1.20
2018-08-11T02:35:59.013Z,1.37
2018-08-11T02:38:27.336Z,1.20
2018-08-11T02:40:55.652Z,1.57
2018-08-11T02:43:24.019Z,1.53
2018-08-11T02:45:52.296Z,1.40
2018-08-11T02:48:20.627Z,1.60
2018-08-11T02:50:48.924Z,1.60
2018-08-11T02:53:17.248Z,1.80
2018-08-11T02:55:45.667Z,1.37
2018-08-11T02:58:14.008Z,1.80
2018-08-11T03:00:42.309Z,1.80
2018-08-11T03:03:10.606Z,1.73
2018-08-11T03:05:38.931Z,1.80
2018-08-11T03:08:07.236Z,2.03
2018-08-11T03:10:35.553Z,2.07
2018-08-11T03:13:04.170Z,2.00
2018-08-11T03:15:32.490Z,1.90
2018-08-11T03:18:00.795Z,2.10
2018-08-11T03:20:29.102Z,1.50
2018-08-11T03:22:57.399Z,1.70
2018-08-11T03:25:25.720Z,1.70
2018-08-11T03:27:54.015Z,2.50
2018-08-11T03:30:22.341Z,2.10
2018-08-11T03:32:50.663Z,1.73
2018-08-11T03:35:18.980Z,2.00
2018-08-11T03:37:47.275Z,2.53
2018-08-11T03:40:15.588Z,2.23
2018-08-11T03:42:43.895Z,1.80
2018-08-11T03:45:12.303Z,2.53
2018-08-11T03:47:40.600Z,2.10
2018-08-11T03:50:08.908Z,2.10
2018-08-11T03:52:37.495Z,2.70
2018-08-11T03:55:05.858Z,2.43
2018-08-11T03:57:34.148Z,2.60
2018-08-11T04:00:02.516Z,2.53
2018-08-11T04:02:30.856Z,2.87
2018-08-11T04:04:59.174Z,2.90
2018-08-11T04:07:27.463Z,2.70
2018-08-11T04:09:55.780Z,3.27
2018-08-11T04:12:24.080Z,2.60
2018-08-11T04:14:52.391Z,2.27
2018-08-11T04:17:24.924Z,2.30
2018-08-11T04:19:53.235Z,3.07
2018-08-11T04:22:21.527Z,2.57
2018-08-11T04:24:49.843Z,2.20
2018-08-11T04:27:18.140Z,2.33
2018-08-11T04:29:46.457Z,2.20
2018-08-11T04:32:14.760Z,1.97
2018-08-11T04:34:43.081Z,2.10
2018-08-11T04:37:11.380Z,2.60
2018-08-11T04:39:39.696Z,2.33
2018-08-11T04:42:08.061Z,2.70
2018-08-11T04:44:36.344Z,2.53
2018-08-11T04:47:04.656Z,2.90
2018-08-11T04:49:32.989Z,2.50
2018-08-11T04:52:01.280Z,2.80
2018-08-11T04:54:29.607Z,2.60
2018-08-11T04:56:57.929Z,2.53
2018-08-11T04:59:26.279Z,2.40
2018-08-11T05:01:54.575Z,2.37
2018-08-11T05:04:22.885Z,2.30
2018-08-11T05:06:51.181Z,2.17
2018-08-11T05:09:19.495Z,2.40
2018-08-11T05:11:47.807Z,2.17
2018-08-11T05:14:16.171Z,1.90
2018-08-11T05:16:44.467Z,1.73
2018-08-11T05:19:12.792Z,2.10
2018-08-11T05:21:41.112Z,2.50
2018-08-11T05:24:09.411Z,2.27
2018-08-11T05:26:37.742Z,1.93
2018-08-11T05:29:06.035Z,2.50
2018-08-11T05:31:34.395Z,2.23
2018-08-11T05:34:02.704Z,2.10
2018-08-11T05:36:31.020Z,2.20
2018-08-11T05:38:59.328Z,1.70
2018-08-11T05:41:27.634Z,1.83
2018-08-11T05:43:55.935Z,1.73
2018-08-11T05:46:24.247Z,1.60
2018-08-11T05:48:52.536Z,1.40
2018-08-11T05:51:20.843Z,1.73
2018-08-11T05:53:49.141Z,1.40
2018-08-11T05:56:17.492Z,1.40
2018-08-11T05:58:45.784Z,1.73
2018-08-11T06:01:14.100Z,1.70
2018-08-11T06:03:42.388Z,1.80
2018-08-11T06:06:10.696Z,1.57
2018-08-11T06:08:39.004Z,1.57
2018-08-11T06:11:07.311Z,1.50
2018-08-11T06:13:35.604Z,1.50
2018-08-11T06:16:03.942Z,1.30
2018-08-11T06:18:32.244Z,0.90
2018-08-11T06:21:00.582Z,1.10
2018-08-11T06:23:28.892Z,1.20
2018-08-11T06:25:57.199Z,1.70
2018-08-11T06:28:25.512Z,1.00
2018-08-11T06:30:53.839Z,1.20
2018-08-11T06:33:22.132Z,1.40
2018-08-11T06:35:50.443Z,1.00
2018-08-11T06:38:18.744Z,1.20
2018-08-11T06:40:47.105Z,1.20
2018-08-11T06:43:15.367Z,1.20
2018-08-11T06:45:43.676Z,1.33
2018-08-11T06:48:11.976Z,1.67
2018-08-11T06:50:40.292Z,1.67
2018-08-11T06:53:08.575Z,1.70
2018-08-11T06:55:37.030Z,1.67
2018-08-11T06:58:05.276Z,1.43
2018-08-11T07:00:33.591Z,1.23
2018-08-11T07:03:01.899Z,1.70
2018-08-11T07:05:30.207Z,1.30
2018-08-11T07:07:58.513Z,2.30
2018-08-11T07:10:26.820Z,1.20
2018-08-11T07:12:55.112Z,1.27
2018-08-11T07:15:23.457Z,1.57
2018-08-11T07:17:51.739Z,1.83
2018-08-11T07:20:20.049Z,1.50
2018-08-11T07:22:48.339Z,1.87
2018-08-11T07:25:16.797Z,1.80
2018-08-11T07:27:45.125Z,2.10
2018-08-11T07:30:13.445Z,1.77
2018-08-11T07:32:41.764Z,2.20
2018-08-11T07:35:10.052Z,1.63
2018-08-11T07:37:38.363Z,1.60
2018-08-11T07:40:06.772Z,1.60
2018-08-11T07:42:35.110Z,1.40
2018-08-11T07:45:03.434Z,1.70
2018-08-11T07:47:31.813Z,1.60
2018-08-11T07:50:00.072Z,1.63
2018-08-11T07:52:28.384Z,1.40
2018-08-11T07:54:56.695Z,1.57
2018-08-11T07:57:25.016Z,1.13
2018-08-11T07:59:53.311Z,1.40
2018-08-11T08:02:21.620Z,1.10
2018-08-11T08:04:49.908Z,1.40
2018-08-11T08:07:18.236Z,1.60
2018-08-11T08:09:46.524Z,1.40
2018-08-11T08:12:14.833Z,1.47
2018-08-11T08:14:43.124Z,1.20
2018-08-11T08:17:11.440Z,1.37
2018-08-11T08:19:39.739Z,1.10
2018-08-11T08:22:08.176Z,1.30
2018-08-11T08:24:36.479Z,1.60
2018-08-11T08:27:04.822Z,1.37
2018-08-11T08:29:33.125Z,1.27
2018-08-11T08:32:01.441Z,1.17
2018-08-11T08:34:29.748Z,1.27
2018-08-11T08:36:58.060Z,1.50
2018-08-11T08:39:26.365Z,1.10
2018-08-11T08:41:54.714Z,1.23
2018-08-11T08:44:23.009Z,1.23
2018-08-11T08:46:51.328Z,1.47
2018-08-11T08:49:19.626Z,1.30
2018-08-11T08:51:47.944Z,1.17
2018-08-11T08:54:16.236Z,1.20
2018-08-11T08:56:44.566Z,1.40
2018-08-11T08:59:12.914Z,1.47
2018-08-11T09:01:41.211Z,1.90
2018-08-11T09:04:09.506Z,1.27
2018-08-11T09:06:37.836Z,1.70
2018-08-11T09:09:08.424Z,1.80
2018-08-11T09:11:36.764Z,1.67
2018-08-11T09:14:05.144Z,1.23
2018-08-11T09:16:33.464Z,1.00
2018-08-11T09:19:01.752Z,1.33
2018-08-11T09:21:30.124Z,0.97
2018-08-11T09:23:58.494Z,1.80
2018-08-11T09:26:26.809Z,1.10
2018-08-11T09:28:55.123Z,1.20
2018-08-11T09:31:23.463Z,1.10
2018-08-11T09:33:51.792Z,1.00
2018-08-11T09:36:20.145Z,1.20
2018-08-11T09:38:48.448Z,1.30
2018-08-11T09:41:17.415Z,1.33
2018-08-11T09:43:45.737Z,1.40
2018-08-11T09:46:14.045Z,1.20
2018-08-11T09:48:42.406Z,1.10
2018-08-11T09:51:10.808Z,1.03
2018-08-11T09:53:39.132Z,1.20
2018-08-11T09:56:07.443Z,1.13
2018-08-11T09:58:35.796Z,1.00
2018-08-11T10:01:09.654Z,1.30
2018-08-11T10:03:38.398Z,1.13
2018-08-11T10:06:06.836Z,1.70
2018-08-11T10:08:35.203Z,1.30
2018-08-11T10:11:03.536Z,1.00
2018-08-11T10:13:32.728Z,0.90
2018-08-11T10:16:01.544Z,1.20
2018-08-11T10:18:30.290Z,0.90
2018-08-11T10:20:58.535Z,1.30
2018-08-11T10:23:26.860Z,1.30
2018-08-11T10:25:55.167Z,0.80
2018-08-11T10:28:23.480Z,1.03
2018-08-11T10:30:51.784Z,1.00
2018-08-11T10:33:20.107Z,1.07
2018-08-11T10:35:49.111Z,1.23
2018-08-11T10:38:17.556Z,1.30
2018-08-11T10:40:45.848Z,0.90
2018-08-11T10:43:14.205Z,0.90
2018-08-11T10:45:42.500Z,1.10
2018-08-11T10:48:10.808Z,1.30
2018-08-11T10:50:39.096Z,1.10
2018-08-11T10:53:07.631Z,1.03
2018-08-11T10:55:36.657Z,1.20
2018-08-11T10:58:05.260Z,1.30
2018-08-11T11:00:33.552Z,1.00
2018-08-11T11:03:01.920Z,1.00
2018-08-11T11:05:30.223Z,1.00
2018-08-11T11:07:58.559Z,0.83
2018-08-11T11:10:26.880Z,1.10
2018-08-11T11:12:55.196Z,1.10
2018-08-11T11:15:23.497Z,1.00
2018-08-11T11:17:51.816Z,0.93
2018-08-11T11:20:20.106Z,0.93
2018-08-11T11:22:48.427Z,1.03
2018-08-11T11:25:16.721Z,1.50
2018-08-11T11:27:45.040Z,0.70
2018-08-11T11:30:13.328Z,0.90
2018-08-11T11:32:41.640Z,1.00
2018-08-11T11:35:09.955Z,1.30
2018-08-11T11:37:38.276Z,0.83
2018-08-11T11:40:07.063Z,1.00
2018-08-11T11:42:35.379Z,1.00
2018-08-11T11:45:03.708Z,1.10
2018-08-11T11:47:32.037Z,1.30
2018-08-11T11:50:00.332Z,0.90
2018-08-11T11:52:28.664Z,0.90
2018-08-11T11:54:57.051Z,0.90
2018-08-11T11:57:25.381Z,1.20
2018-08-11T11:59:53.725Z,1.50
2018-08-11T12:02:22.028Z,1.40
2018-08-11T12:04:50.349Z,1.00
2018-08-11T12:07:18.670Z,1.40
2018-08-11T12:09:46.979Z,1.10
2018-08-11T12:12:15.267Z,1.37
2018-08-11T12:14:43.597Z,1.37
2018-08-11T12:17:11.908Z,1.90
2018-08-11T12:19:40.708Z,2.00
2018-08-11T12:22:15.669Z,1.10
2018-08-11T12:24:43.992Z,1.37
2018-08-11T12:27:12.288Z,1.00
2018-08-11T12:29:40.640Z,1.10
2018-08-11T12:32:08.947Z,1.30
2018-08-11T12:34:37.324Z,1.40
2018-08-11T12:37:05.627Z,1.20
2018-08-11T12:39:33.931Z,1.30
2018-08-11T12:42:02.229Z,0.90
2018-08-11T12:44:30.563Z,1.10
2018-08-11T12:46:58.862Z,0.90
2018-08-11T12:49:27.200Z,0.90
2018-08-11T12:51:55.491Z,0.93
2018-08-11T12:54:23.803Z,1.30
2018-08-11T12:56:52.129Z,1.03
2018-08-11T12:59:20.432Z,1.20
2018-08-11T13:01:48.876Z,0.90
2018-08-11T13:04:17.188Z,1.40
2018-08-11T13:06:45.507Z,1.20
2018-08-11T13:09:13.836Z,1.10
2018-08-11T13:11:42.132Z,1.10
2018-08-11T13:14:10.464Z,0.93
2018-08-11T13:16:38.761Z,1.00
2018-08-11T13:19:07.196Z,1.30
2018-08-11T13:21:35.840Z,1.17
2018-08-11T13:24:04.168Z,0.87
2018-08-11T13:26:32.488Z,3.57
2018-08-11T13:29:00.800Z,1.00
2018-08-11T13:31:29.168Z,1.37
2018-08-11T13:33:57.480Z,1.17
2018-08-11T13:36:25.771Z,1.00
2018-08-11T13:38:54.098Z,0.80
2018-08-11T13:41:22.412Z,1.00
2018-08-11T13:43:50.967Z,1.07
2018-08-11T13:46:19.271Z,0.67
2018-08-11T13:48:47.589Z,0.90
2018-08-11T13:51:15.908Z,0.90
2018-08-11T13:53:44.229Z,1.10
2018-08-11T13:56:13.570Z,1.00
2018-08-11T13:58:41.891Z,1.07
2018-08-11T14:01:10.232Z,0.90
2018-08-11T14:03:38.524Z,0.87
2018-08-11T14:06:06.926Z,1.20
2018-08-11T14:08:35.231Z,0.97
2018-08-11T14:11:03.543Z,0.80
2018-08-11T14:13:31.851Z,0.80
2018-08-11T14:16:00.145Z,1.00
2018-08-11T14:18:28.440Z,0.90
2018-08-11T14:20:56.756Z,1.23
2018-08-11T14:23:25.052Z,1.40
2018-08-11T14:25:53.391Z,1.27
2018-08-11T14:28:21.687Z,1.00
2018-08-11T14:30:50.003Z,1.10
2018-08-11T14:33:18.311Z,1.33
2018-08-11T14:35:46.625Z,1.27
2018-08-11T14:38:14.916Z,1.30
2018-08-11T14:40:43.232Z,1.30
2018-08-11T14:43:11.545Z,1.37
2018-08-11T14:45:39.868Z,1.00
2018-08-11T14:48:08.164Z,1.07
2018-08-11T14:50:36.576Z,1.00
2018-08-11T14:53:04.821Z,0.83
2018-08-11T14:55:33.157Z,0.80
2018-08-11T14:58:01.488Z,1.10
2018-08-11T15:00:29.829Z,1.20
2018-08-11T15:02:58.182Z,1.07
2018-08-11T15:05:26.511Z,1.03
2018-08-11T15:07:54.804Z,1.20
2018-08-11T15:10:23.129Z,0.90
2018-08-11T15:12:51.436Z,0.93
2018-08-11T15:15:19.764Z,1.00
2018-08-11T15:17:48.056Z,1.10
2018-08-11T15:20:16.368Z,1.10
2018-08-11T15:22:44.663Z,0.80
2018-08-11T15:25:12.978Z,1.00
2018-08-11T15:27:41.318Z,0.87
2018-08-11T15:30:11.299Z,1.00
2018-08-11T15:32:39.617Z,1.43
2018-08-11T15:35:09.007Z,1.00
2018-08-11T15:37:37.332Z,1.30
2018-08-11T15:40:06.300Z,1.20
2018-08-11T15:42:34.875Z,1.33
2018-08-11T15:45:03.224Z,1.10
2018-08-11T15:47:32.559Z,1.20
2018-08-11T15:50:00.892Z,1.10
2018-08-11T15:52:29.212Z,1.27
2018-08-11T15:54:57.536Z,1.07
2018-08-11T15:57:25.831Z,1.20
2018-08-11T15:59:54.160Z,1.27
2018-08-11T16:02:22.471Z,1.30
2018-08-11T16:04:50.775Z,1.30
2018-08-11T16:07:19.059Z,1.40
2018-08-11T16:09:47.429Z,1.37
2018-08-11T16:12:15.723Z,1.47
2018-08-11T16:14:44.088Z,0.97
2018-08-11T16:17:12.448Z,1.10
2018-08-11T16:19:40.763Z,1.00
2018-08-11T16:22:09.059Z,1.00
2018-08-11T16:24:37.376Z,1.00
2018-08-11T16:27:05.879Z,1.30
2018-08-11T16:29:34.204Z,1.03
2018-08-11T16:32:02.499Z,1.23
2018-08-11T16:34:30.796Z,1.00
2018-08-11T16:36:59.116Z,1.07
2018-08-11T16:39:27.434Z,1.50
2018-08-11T16:41:55.782Z,1.20
2018-08-11T16:44:24.080Z,1.33
2018-08-11T16:46:52.400Z,1.20
2018-08-11T16:49:20.712Z,1.03
2018-08-11T16:51:49.027Z,1.30
2018-08-11T16:54:17.322Z,1.63
2018-08-11T16:56:45.660Z,1.20
2018-08-11T16:59:13.964Z,1.13
2018-08-11T17:01:42.281Z,1.40
2018-08-11T17:04:10.576Z,1.57
2018-08-11T17:06:38.888Z,1.50
2018-08-11T17:09:09.607Z,1.37
2018-08-11T17:11:37.949Z,1.07
2018-08-11T17:14:06.701Z,1.53
2018-08-11T17:16:35.080Z,1.57
2018-08-11T17:19:03.400Z,1.10
2018-08-11T17:21:31.718Z,1.20
2018-08-11T17:24:00.476Z,1.13
2018-08-11T17:26:28.788Z,1.20
2018-08-11T17:28:57.108Z,1.30
2018-08-11T17:31:25.547Z,1.10
2018-08-11T17:33:53.948Z,1.33
2018-08-11T17:36:22.267Z,1.10
2018-08-11T17:38:50.646Z,1.53
2018-08-11T17:41:18.955Z,1.37
2018-08-11T17:43:47.256Z,1.50
2018-08-11T17:46:15.573Z,0.93
2018-08-11T17:48:43.879Z,1.63
2018-08-11T17:51:12.188Z,0.97
2018-08-11T17:53:40.492Z,1.00
2018-08-11T17:56:08.824Z,1.07
2018-08-11T17:58:37.124Z,1.10
2018-08-11T18:01:05.431Z,1.00
2018-08-11T18:03:33.724Z,1.00
2018-08-11T18:06:02.034Z,1.10
2018-08-11T18:08:30.327Z,1.20
2018-08-11T18:10:58.644Z,1.33
2018-08-11T18:13:26.932Z,1.20
2018-08-11T18:15:55.252Z,1.60
2018-08-11T18:18:23.560Z,1.10
2018-08-11T18:20:51.880Z,1.40
2018-08-11T18:23:20.175Z,0.90
2018-08-11T18:25:48.499Z,1.20
2018-08-11T18:28:16.788Z,1.00
2018-08-11T18:30:45.108Z,1.10
2018-08-11T18:33:13.406Z,1.20
2018-08-11T18:35:41.785Z,1.10
2018-08-11T18:38:10.077Z,1.10
2018-08-11T18:40:38.400Z,1.00
2018-08-11T18:43:06.692Z,1.60
2018-08-11T18:45:34.988Z,1.20
2018-08-11T18:48:03.308Z,1.20
2018-08-11T18:50:31.612Z,1.27
2018-08-11T18:52:59.932Z,1.10
2018-08-11T18:55:28.253Z,1.10
2018-08-11T18:57:56.572Z,1.20
2018-08-11T19:00:24.888Z,1.43
2018-08-11T19:02:53.206Z,1.20
2018-08-11T19:05:21.524Z,1.57
2018-08-11T19:07:49.835Z,1.20
2018-08-11T19:10:18.144Z,1.27
2018-08-11T19:12:46.471Z,1.20
2018-08-11T19:15:14.904Z,1.30
2018-08-11T19:17:43.236Z,1.40
2018-08-11T19:20:12.705Z,1.40
2018-08-11T19:22:41.027Z,1.30
2018-08-11T19:25:10.536Z,1.27
2018-08-11T19:27:38.895Z,1.17
2018-08-11T19:30:08.532Z,1.50
2018-08-11T19:32:37.176Z,1.10
2018-08-11T19:35:05.939Z,1.30
2018-08-11T19:37:34.256Z,1.10
2018-08-11T19:40:02.548Z,1.43
2018-08-11T19:42:30.897Z,1.33
2018-08-11T19:44:59.236Z,1.40
2018-08-11T19:47:27.549Z,1.50
2018-08-11T19:49:55.968Z,1.20
2018-08-11T19:52:24.316Z,1.33
2018-08-11T19:54:52.710Z,1.30
2018-08-11T19:57:21.184Z,1.43
2018-08-11T19:59:49.494Z,1.77
2018-08-11T20:02:17.833Z,1.63
2018-08-11T20:04:46.190Z,1.60
2018-08-11T20:07:14.553Z,1.60
2018-08-11T20:09:42.840Z,1.60
2018-08-11T20:12:11.167Z,1.80
2018-08-11T20:14:39.460Z,1.20
2018-08-11T20:17:07.772Z,1.40
2018-08-11T20:19:36.067Z,1.47
2018-08-11T20:22:04.408Z,1.67
2018-08-11T20:24:32.712Z,1.37
2018-08-11T20:27:01.032Z,1.30
2018-08-11T20:29:29.345Z,1.40
2018-08-11T20:31:57.670Z,1.60
2018-08-11T20:34:25.977Z,1.33
2018-08-11T20:36:54.292Z,1.30
2018-08-11T20:39:22.591Z,1.40
2018-08-11T20:41:50.908Z,1.27
2018-08-11T20:44:19.215Z,1.50
2018-08-11T20:46:47.540Z,1.90
2018-08-11T20:49:15.844Z,1.50
2018-08-11T20:51:44.172Z,1.40
2018-08-11T20:54:12.472Z,1.20
2018-08-11T20:56:40.864Z,1.27
2018-08-11T20:59:09.189Z,1.20
2018-08-11T21:01:37.606Z,1.60
2018-08-11T21:04:06.212Z,1.67
2018-08-11T21:06:34.924Z,1.50
2018-08-11T21:09:03.375Z,1.57
2018-08-11T21:11:31.721Z,2.00
2018-08-11T21:14:00.040Z,1.67
2018-08-11T21:16:28.344Z,1.57
2018-08-11T21:18:56.656Z,1.33
2018-08-11T21:21:24.952Z,1.50
2018-08-11T21:23:53.392Z,1.50
2018-08-11T21:26:21.625Z,1.60
2018-08-11T21:28:49.941Z,1.30
2018-08-11T21:31:18.241Z,1.30
2018-08-11T21:33:46.560Z,1.50
2018-08-11T21:36:14.918Z,1.70
2018-08-11T21:38:43.234Z,1.27
2018-08-11T21:41:11.540Z,1.30
2018-08-11T21:43:39.908Z,1.43
2018-08-11T21:46:08.221Z,1.10
2018-08-11T21:48:36.545Z,1.50
2018-08-11T21:51:04.871Z,1.90
2018-08-11T21:53:34.744Z,1.43
2018-08-11T21:56:03.083Z,1.20
2018-08-11T21:58:31.395Z,1.50
2018-08-11T22:01:10.052Z,2.00
2018-08-11T22:03:39.069Z,1.80
2018-08-11T22:06:07.447Z,2.17
2018-08-11T22:08:35.784Z,1.63
2018-08-11T22:11:04.113Z,1.60
2018-08-11T22:13:32.461Z,1.43
2018-08-11T22:16:01.652Z,1.57
2018-08-11T22:18:29.977Z,1.43
2018-08-11T22:20:58.296Z,1.80
2018-08-11T22:23:26.623Z,1.70
2018-08-11T22:25:54.960Z,1.60
2018-08-11T22:28:23.331Z,1.40
2018-08-11T22:30:51.644Z,1.70
2018-08-11T22:33:20.001Z,1.67
2018-08-11T22:35:48.329Z,1.73
2018-08-11T22:38:16.669Z,2.07
2018-08-11T22:40:44.972Z,1.73
2018-08-11T22:43:13.287Z,1.57
2018-08-11T22:45:41.592Z,1.47
2018-08-11T22:48:09.909Z,1.70
2018-08-11T22:50:38.225Z,1.97
2018-08-11T22:53:06.575Z,1.70
2018-08-11T22:55:34.908Z,1.90
2018-08-11T22:58:03.256Z,1.70
2018-08-11T23:00:31.567Z,1.83
2018-08-11T23:02:59.900Z,1.97
2018-08-11T23:05:28.204Z,1.80
2018-08-11T23:07:56.533Z,1.87
2018-08-11T23:10:24.831Z,1.80
2018-08-11T23:12:53.160Z,2.23
2018-08-11T23:15:21.471Z,1.60
2018-08-11T23:17:50.635Z,1.83
2018-08-11T23:20:18.945Z,1.60
2018-08-11T23:22:47.284Z,2.30
2018-08-11T23:25:16.199Z,1.83
2018-08-11T23:27:44.594Z,1.80
2018-08-11T23:30:14.852Z,2.10
2018-08-11T23:32:43.727Z,1.50
2018-08-11T23:35:12.443Z,2.03
2018-08-11T23:37:41.336Z,2.00
2018-08-11T23:40:10.559Z,1.63
2018-08-11T23:42:38.964Z,2.53
2018-08-11T23:45:11.257Z,2.40
2018-08-11T23:47:40.121Z,2.43
2018-08-11T23:50:09.096Z,2.27
2018-08-11T23:52:37.408Z,2.00
2018-08-11T23:55:06.471Z,2.27
2018-08-11T23:57:35.124Z,2.30
